SWR059B LSZH-LIMC
Flight info
| Callsign | SWR059B |
|---|---|
| Flight time | N/A |
| Altitude | 22000 |
| Route | VEBIT T53 GERSA/N0420F230 N850 DEGAD Z424 AKASU/N0397F190 Z424 RIXUV |
| Aircraft | A320/M-SDE3FGHIRWY/LB1 |
Departure
| Time | 2026-04-26 20:33 |
|---|---|
| Airport | Zürich Airport (LSZH) |
Arrival
| Time | N/A |
|---|---|
| Airport | Milan Malpensa International Airport (LIMC) |
| Time | Latitude | Longitude | Altitude | Speed | Heading |
|---|---|---|---|---|---|
| 2026-04-26 20:00 | 47.45337 | 8.55944 | 1422 ft | 0 kts | 6° |
| 2026-04-26 20:15 | 47.45327 | 8.55942 | 1413 ft | 4 kts | 6° |
| 2026-04-26 20:15 | 47.45300 | 8.55938 | 1413 ft | 4 kts | 6° |
| 2026-04-26 20:15 | 47.45274 | 8.55938 | 1408 ft | 4 kts | 346° |
| 2026-04-26 20:16 | 47.45252 | 8.55954 | 1413 ft | 4 kts | 300° |
| 2026-04-26 20:16 | 47.45248 | 8.55968 | 1410 ft | 0 kts | 276° |
| 2026-04-26 20:25 | 47.45250 | 8.55935 | 1408 ft | 8 kts | 276° |
| 2026-04-26 20:25 | 47.45260 | 8.55803 | 1411 ft | 17 kts | 277° |
| 2026-04-26 20:26 | 47.45271 | 8.55642 | 1407 ft | 15 kts | 276° |
| 2026-04-26 20:26 | 47.45332 | 8.55540 | 1413 ft | 13 kts | 334° |
| 2026-04-26 20:26 | 47.45420 | 8.55478 | 1412 ft | 15 kts | 334° |
| 2026-04-26 20:26 | 47.45515 | 8.55413 | 1404 ft | 15 kts | 335° |
| 2026-04-26 20:27 | 47.45617 | 8.55344 | 1403 ft | 14 kts | 338° |
| 2026-04-26 20:27 | 47.45669 | 8.55425 | 1405 ft | 13 kts | 89° |
| 2026-04-26 20:27 | 47.45661 | 8.55556 | 1410 ft | 13 kts | 96° |
| 2026-04-26 20:27 | 47.45651 | 8.55684 | 1406 ft | 13 kts | 97° |
| 2026-04-26 20:28 | 47.45641 | 8.55813 | 1411 ft | 12 kts | 96° |
| 2026-04-26 20:28 | 47.45632 | 8.55938 | 1414 ft | 13 kts | 96° |
| 2026-04-26 20:28 | 47.45623 | 8.56073 | 1412 ft | 14 kts | 96° |
| 2026-04-26 20:28 | 47.45613 | 8.56217 | 1413 ft | 14 kts | 96° |
| 2026-04-26 20:29 | 47.45602 | 8.56369 | 1416 ft | 15 kts | 96° |
| 2026-04-26 20:29 | 47.45591 | 8.56530 | 1420 ft | 16 kts | 96° |
| 2026-04-26 20:29 | 47.45579 | 8.56692 | 1419 ft | 16 kts | 96° |
| 2026-04-26 20:29 | 47.45568 | 8.56854 | 1421 ft | 16 kts | 96° |
| 2026-04-26 20:30 | 47.45572 | 8.56981 | 1422 ft | 0 kts | 58° |
| 2026-04-26 20:31 | 47.45595 | 8.57011 | 1424 ft | 7 kts | 29° |
| 2026-04-26 20:31 | 47.45658 | 8.56974 | 1425 ft | 16 kts | 289° |
| 2026-04-26 20:31 | 47.45670 | 8.56889 | 1424 ft | 4 kts | 280° |
| 2026-04-26 20:31 | 47.45673 | 8.56866 | 1423 ft | 0 kts | 280° |
| 2026-04-26 20:32 | 47.45675 | 8.56839 | 1415 ft | 10 kts | 278° |
| 2026-04-26 20:32 | 47.45697 | 8.56509 | 1418 ft | 63 kts | 275° |
| 2026-04-26 20:32 | 47.45776 | 8.55470 | 1401 ft | 143 kts | 275° |
| 2026-04-26 20:33 | 47.45857 | 8.54369 | 1545 ft | 171 kts | 278° |
| 2026-04-26 20:33 | 47.45961 | 8.52565 | 2387 ft | 181 kts | 277° |
| 2026-04-26 20:33 | 47.46092 | 8.50650 | 3260 ft | 198 kts | 279° |
| 2026-04-26 20:33 | 47.46210 | 8.48505 | 3793 ft | 218 kts | 268° |
| 2026-04-26 20:34 | 47.45680 | 8.46395 | 3430 ft | 228 kts | 226° |
| 2026-04-26 20:34 | 47.44311 | 8.45136 | 3080 ft | 246 kts | 200° |
| 2026-04-26 20:34 | 47.42777 | 8.43746 | 3540 ft | 271 kts | 222° |
| 2026-04-26 20:34 | 47.41560 | 8.41581 | 4492 ft | 277 kts | 235° |
| 2026-04-26 20:35 | 47.40531 | 8.39150 | 5502 ft | 280 kts | 240° |
| 2026-04-26 20:35 | 47.39545 | 8.36652 | 6483 ft | 284 kts | 241° |
| 2026-04-26 20:35 | 47.38589 | 8.34095 | 7458 ft | 285 kts | 248° |
| 2026-04-26 20:35 | 47.37791 | 8.31422 | 8443 ft | 285 kts | 246° |
| 2026-04-26 20:36 | 47.36919 | 8.28789 | 9429 ft | 285 kts | 243° |
| 2026-04-26 20:36 | 47.36009 | 8.26186 | 10003 ft | 289 kts | 243° |
| 2026-04-26 20:36 | 47.35075 | 8.23577 | 9991 ft | 285 kts | 243° |
| 2026-04-26 20:36 | 47.34151 | 8.21020 | 10290 ft | 280 kts | 243° |
| 2026-04-26 20:37 | 47.33225 | 8.18455 | 10835 ft | 295 kts | 243° |
| 2026-04-26 20:37 | 47.32245 | 8.15727 | 11412 ft | 308 kts | 243° |
| 2026-04-26 20:37 | 47.31213 | 8.12837 | 11991 ft | 321 kts | 243° |
| 2026-04-26 20:37 | 47.29889 | 8.10207 | 12633 ft | 331 kts | 221° |
| 2026-04-26 20:38 | 47.27816 | 8.08692 | 13425 ft | 340 kts | 193° |
| 2026-04-26 20:38 | 47.25448 | 8.08763 | 14193 ft | 348 kts | 166° |
| 2026-04-26 20:38 | 47.23309 | 8.10439 | 14913 ft | 355 kts | 139° |
| 2026-04-26 20:38 | 47.21876 | 8.13389 | 15655 ft | 359 kts | 111° |
| 2026-04-26 20:39 | 47.21472 | 8.16974 | 16403 ft | 358 kts | 84° |
| 2026-04-26 20:39 | 47.22011 | 8.20527 | 17181 ft | 356 kts | 72° |
| 2026-04-26 20:39 | 47.22693 | 8.24027 | 17970 ft | 356 kts | 72° |
| 2026-04-26 20:39 | 47.23380 | 8.27545 | 18736 ft | 356 kts | 72° |
| 2026-04-26 20:40 | 47.24064 | 8.31039 | 19456 ft | 356 kts | 72° |
| 2026-04-26 20:40 | 47.24719 | 8.34553 | 20184 ft | 355 kts | 77° |
| 2026-04-26 20:40 | 47.24789 | 8.38168 | 20931 ft | 356 kts | 100° |
| 2026-04-26 20:40 | 47.23905 | 8.41529 | 21686 ft | 353 kts | 122° |
| 2026-04-26 20:41 | 47.22376 | 8.44409 | 22072 ft | 364 kts | 136° |
| 2026-04-26 20:41 | 47.20407 | 8.46882 | 22174 ft | 381 kts | 146° |
| 2026-04-26 20:41 | 47.18096 | 8.48946 | 22184 ft | 399 kts | 154° |
| 2026-04-26 20:41 | 47.15498 | 8.50641 | 22181 ft | 416 kts | 162° |
| 2026-04-26 20:42 | 47.12661 | 8.51823 | 22180 ft | 432 kts | 171° |
| 2026-04-26 20:42 | 47.09662 | 8.52400 | 22174 ft | 439 kts | 176° |
| 2026-04-26 20:42 | 47.06601 | 8.52847 | 22158 ft | 442 kts | 176° |
| 2026-04-26 20:42 | 47.03579 | 8.53279 | 22171 ft | 442 kts | 176° |
| 2026-04-26 20:43 | 47.00519 | 8.53714 | 22170 ft | 442 kts | 176° |
| 2026-04-26 20:43 | 46.97457 | 8.54149 | 22171 ft | 442 kts | 176° |
| 2026-04-26 20:43 | 46.94397 | 8.54587 | 22176 ft | 442 kts | 176° |
| 2026-04-26 20:43 | 46.91337 | 8.55027 | 22171 ft | 442 kts | 176° |
| 2026-04-26 20:44 | 46.88280 | 8.55471 | 22168 ft | 442 kts | 176° |
| 2026-04-26 20:44 | 46.85220 | 8.55914 | 22156 ft | 442 kts | 176° |
| 2026-04-26 20:44 | 46.82156 | 8.56354 | 22171 ft | 441 kts | 176° |
| 2026-04-26 20:44 | 46.79063 | 8.56793 | 22161 ft | 441 kts | 176° |
| 2026-04-26 20:45 | 46.76055 | 8.57220 | 22164 ft | 440 kts | 176° |
| 2026-04-26 20:45 | 46.73011 | 8.57655 | 22158 ft | 439 kts | 176° |
| 2026-04-26 20:45 | 46.71987 | 8.57801 | 22163 ft | 439 kts | 176° |